CheckWX is a tool to help pilots better visualize weather data.  It is not intended as a substitute for an official pre-flight weather briefing.

06:50:48 UTC

PAHX METAR
Shageluk Airport
Shageluk, Alaska, USA
Current

55 mins ago

PAHX 190556Z AUTO 04012KT 10SM SCT080 M19/M23 A2967 RMK AO2 SLP048 T11941233 11183 21200 52000 PWINO FZRANO
Observed
Jan-19 @ 05:56 UTC
Wind
  • 040° at 12 KTS
Visibility
10 SM
Flight Rules
VFR
Cloud Levels
  • Scattered at 8,000' AGL
Temperature
-19°C / -2°F
Dewpoint
-23°C / -9°F
Humidity
71%
Altimeter
29.67" Hg
Pressure
1004.72 hPa
Previous

2 hours ago

PAHX 190456Z AUTO 04013G18KT 10SM BKN080 M19/M23 A2967 RMK AO2 SLP049 T11941228 PWINO FZRANO
Observed
Jan-19 @ 04:56 UTC
Wind
  • 040° at 13 KTS
  • Gusting to 18 KTS
Visibility
10 SM
Flight Rules
VFR
Cloud Levels
  • Broken at 8,000' AGL
Temperature
-19°C / -2°F
Dewpoint
-23°C / -9°F
Humidity
71%
Altimeter
29.67" Hg
Pressure
1004.72 hPa
Previous

3 hours ago

PAHX 190356Z AUTO 04013KT 10SM CLR M19/M23 A2966 RMK AO2 SLP048 T11941228 PWINO FZRANO
Observed
Jan-19 @ 03:56 UTC
Wind
  • 040° at 13 KTS
Visibility
10 SM
Flight Rules
VFR
Cloud Levels
  • Clear skies
Temperature
-19°C / -2°F
Dewpoint
-23°C / -9°F
Humidity
71%
Altimeter
29.66" Hg
Pressure
1004.42 hPa